createdAt,value
2018-09-24T00:04:39.889Z,10.50
2018-09-24T00:09:20.609Z,10.40
2018-09-24T00:14:00.657Z,10.40
2018-09-24T00:18:40.986Z,10.40
2018-09-24T00:23:21.030Z,10.40
2018-09-24T00:28:01.057Z,10.40
2018-09-24T00:32:41.259Z,10.50
2018-09-24T00:37:20.960Z,10.50
2018-09-24T00:42:01.988Z,10.50
2018-09-24T00:46:42.572Z,10.50
2018-09-24T00:51:23.163Z,10.40
2018-09-24T00:56:03.244Z,10.30
2018-09-24T01:00:43.352Z,10.20
2018-09-24T01:05:23.465Z,10.10
2018-09-24T01:10:03.553Z,10.00
2018-09-24T01:14:43.498Z,10.00
2018-09-24T01:19:23.523Z,10.00
2018-09-24T01:24:03.919Z,10.00
2018-09-24T01:28:43.960Z,9.90
2018-09-24T01:33:24.037Z,9.80
2018-09-24T01:38:04.682Z,9.50
2018-09-24T01:42:44.688Z,9.30
2018-09-24T01:47:24.606Z,9.10
2018-09-24T01:52:05.182Z,8.90
2018-09-24T01:56:45.449Z,8.70
2018-09-24T02:01:25.336Z,8.50
2018-09-24T02:06:05.828Z,8.50
2018-09-24T02:10:45.733Z,8.50
2018-09-24T02:15:29.122Z,8.40
2018-09-24T02:20:09.269Z,8.40
2018-09-24T02:24:49.094Z,8.30
2018-09-24T02:29:29.186Z,8.20
2018-09-24T02:34:10.481Z,8.10
2018-09-24T02:38:50.344Z,8.00
2018-09-24T02:43:31.659Z,8.00
2018-09-24T02:48:11.581Z,7.90
2018-09-24T02:52:53.232Z,7.90
2018-09-24T02:57:33.964Z,7.80
2018-09-24T03:02:19.975Z,7.80
2018-09-24T03:06:59.884Z,7.80
2018-09-24T03:11:46.815Z,7.80
2018-09-24T03:16:26.729Z,7.70
2018-09-24T03:21:07.052Z,7.60
2018-09-24T03:25:47.761Z,7.60
2018-09-24T03:30:33.064Z,7.50
2018-09-24T03:35:12.901Z,7.40
2018-09-24T03:39:53.017Z,7.20
2018-09-24T03:44:33.067Z,7.20
2018-09-24T03:49:13.017Z,7.00
2018-09-24T03:53:53.119Z,7.00
2018-09-24T03:58:33.246Z,7.00
2018-09-24T04:03:13.211Z,6.90
2018-09-24T04:07:58.940Z,6.80
2018-09-24T04:12:44.151Z,6.80
2018-09-24T04:17:29.392Z,6.70
2018-09-24T04:22:14.755Z,6.60
2018-09-24T04:27:00.139Z,6.60
2018-09-24T04:31:45.369Z,6.60
2018-09-24T04:36:30.465Z,6.60
2018-09-24T04:41:15.633Z,6.50
2018-09-24T04:46:00.818Z,6.50
2018-09-24T04:50:45.921Z,6.40
2018-09-24T04:55:31.108Z,6.30
2018-09-24T05:00:16.162Z,6.30
2018-09-24T05:05:01.498Z,6.30
2018-09-24T05:09:47.000Z,6.20
2018-09-24T05:14:33.627Z,6.10
2018-09-24T05:19:18.963Z,6.10
2018-09-24T05:24:04.097Z,6.00
2018-09-24T05:28:50.391Z,6.00
2018-09-24T05:33:35.553Z,5.90
2018-09-24T05:38:21.444Z,5.90
2018-09-24T05:43:06.983Z,6.00
2018-09-24T05:47:52.640Z,6.00
2018-09-24T05:52:38.202Z,6.00
2018-09-24T05:57:24.323Z,6.10
2018-09-24T06:02:09.782Z,6.30
2018-09-24T06:06:55.381Z,6.40
2018-09-24T06:11:41.309Z,6.60
2018-09-24T06:16:27.310Z,6.90
2018-09-24T06:21:12.470Z,7.20
2018-09-24T06:25:57.662Z,7.70
2018-09-24T06:30:43.071Z,8.00
2018-09-24T06:35:28.609Z,8.40
2018-09-24T06:40:14.430Z,8.80
2018-09-24T06:44:59.619Z,9.20
2018-09-24T06:49:44.908Z,9.60
2018-09-24T06:54:30.913Z,10.00
2018-09-24T06:59:16.978Z,10.60
2018-09-24T07:04:02.467Z,10.80
2018-09-24T07:08:47.606Z,11.30
2018-09-24T07:13:33.454Z,12.20
2018-09-24T07:18:18.838Z,14.10
2018-09-24T07:23:05.182Z,16.20
2018-09-24T07:27:50.425Z,17.90
2018-09-24T07:32:36.293Z,18.90
2018-09-24T07:37:22.137Z,20.10
2018-09-24T07:42:07.388Z,21.30
2018-09-24T07:46:52.873Z,22.20
2018-09-24T07:51:38.214Z,23.10
2018-09-24T07:56:23.316Z,24.10
2018-09-24T08:01:08.677Z,24.50
2018-09-24T08:05:54.096Z,25.10
2018-09-24T08:10:39.420Z,24.80
2018-09-24T08:15:24.841Z,25.70
2018-09-24T08:20:10.365Z,26.80
2018-09-24T08:24:57.425Z,26.80
2018-09-24T08:29:42.637Z,26.80
2018-09-24T08:34:28.021Z,27.40
2018-09-24T08:39:14.128Z,27.70
2018-09-24T08:43:59.846Z,27.30
2018-09-24T08:48:45.176Z,27.50
2018-09-24T08:53:30.650Z,27.50
2018-09-24T08:58:15.994Z,27.40
2018-09-24T09:03:01.945Z,27.20
2018-09-24T09:07:47.230Z,26.20
2018-09-24T09:12:32.671Z,25.30
2018-09-24T09:17:18.507Z,26.00
2018-09-24T09:22:03.960Z,26.60
2018-09-24T09:26:49.320Z,26.60
2018-09-24T09:31:35.665Z,28.40
2018-09-24T09:36:20.872Z,30.30
2018-09-24T09:41:06.255Z,31.10
2018-09-24T09:45:52.252Z,31.00
2018-09-24T09:50:37.629Z,30.30
2018-09-24T09:55:23.877Z,27.90
2018-09-24T10:00:09.841Z,24.30
2018-09-24T10:04:55.326Z,21.60
2018-09-24T10:09:40.508Z,22.00
2018-09-24T10:14:26.445Z,23.40
2018-09-24T10:19:11.853Z,24.70
2018-09-24T10:23:57.994Z,25.10
2018-09-24T10:28:43.069Z,24.90
2018-09-24T10:33:28.299Z,28.00
2018-09-24T10:38:13.481Z,28.30
2018-09-24T10:43:00.687Z,29.60
2018-09-24T10:47:45.950Z,27.40
2018-09-24T10:52:31.939Z,24.20
2018-09-24T10:57:18.037Z,21.50
2018-09-24T11:02:03.404Z,20.30
2018-09-24T11:06:48.837Z,23.40
2018-09-24T11:11:34.078Z,25.50
2018-09-24T11:16:20.295Z,25.90
2018-09-24T11:21:05.723Z,27.70
2018-09-24T11:25:50.900Z,28.60
2018-09-24T11:30:37.161Z,26.30
2018-09-24T11:35:22.369Z,23.70
2018-09-24T11:40:08.325Z,23.70
2018-09-24T11:44:53.570Z,24.90
2018-09-24T11:49:39.070Z,24.50
2018-09-24T11:54:24.137Z,22.70
2018-09-24T11:59:10.137Z,21.60
2018-09-24T12:03:55.477Z,24.10
2018-09-24T12:08:43.181Z,27.50
2018-09-24T12:13:31.373Z,27.90
2018-09-24T12:18:17.740Z,23.90
2018-09-24T12:23:03.122Z,24.30
2018-09-24T12:27:49.843Z,26.00
2018-09-24T12:32:36.207Z,27.40
2018-09-24T12:37:22.438Z,28.90
2018-09-24T12:42:08.904Z,29.90
2018-09-24T12:46:57.720Z,29.90
2018-09-24T12:51:45.634Z,28.90
2018-09-24T12:56:31.753Z,28.00
2018-09-24T13:01:18.193Z,26.30
2018-09-24T13:06:04.466Z,23.40
2018-09-24T13:10:51.233Z,21.20
2018-09-24T13:15:37.140Z,22.10
2018-09-24T13:20:23.322Z,24.00
2018-09-24T13:25:10.524Z,23.10
2018-09-24T13:29:55.783Z,21.90
2018-09-24T13:34:41.054Z,20.80
2018-09-24T13:39:27.346Z,19.90
2018-09-24T13:44:12.797Z,19.30
2018-09-24T13:49:00.205Z,19.10
2018-09-24T13:53:45.508Z,18.80
2018-09-24T13:58:30.649Z,20.10
2018-09-24T14:03:15.949Z,21.70
2018-09-24T14:08:01.043Z,22.60
2018-09-24T14:12:46.188Z,22.10
2018-09-24T14:17:31.493Z,20.20
2018-09-24T14:22:16.869Z,19.10
2018-09-24T14:27:03.279Z,18.60
2018-09-24T14:31:48.472Z,18.40
2018-09-24T14:36:33.669Z,18.60
2018-09-24T14:41:19.004Z,18.30
2018-09-24T14:46:04.417Z,18.20
2018-09-24T14:50:49.833Z,18.40
2018-09-24T14:55:35.613Z,18.60
2018-09-24T15:00:20.817Z,18.50
2018-09-24T15:05:07.177Z,18.60
2018-09-24T15:09:52.314Z,18.40
2018-09-24T15:14:37.517Z,18.20
2018-09-24T15:19:23.401Z,18.20
2018-09-24T15:24:08.714Z,18.20
2018-09-24T15:28:54.231Z,18.10
2018-09-24T15:33:39.458Z,18.00
2018-09-24T15:38:25.121Z,17.70
2018-09-24T15:43:10.448Z,17.50
2018-09-24T15:47:55.773Z,17.30
2018-09-24T15:52:41.471Z,17.20
2018-09-24T15:57:26.734Z,17.10
2018-09-24T16:02:11.957Z,17.00
2018-09-24T16:06:57.439Z,16.80
2018-09-24T16:11:47.640Z,16.60
2018-09-24T16:16:33.384Z,16.50
2018-09-24T16:21:18.621Z,16.40
2018-09-24T16:26:04.748Z,16.20
2018-09-24T16:30:51.884Z,16.10
2018-09-24T16:35:37.282Z,16.10
2018-09-24T16:40:23.327Z,16.10
2018-09-24T16:45:08.631Z,15.90
2018-09-24T16:49:54.736Z,15.80
2018-09-24T16:54:47.168Z,15.70
2018-09-24T16:59:33.414Z,15.50
2018-09-24T17:04:21.555Z,15.30
2018-09-24T17:09:06.741Z,15.20
2018-09-24T17:13:52.212Z,15.00
2018-09-24T17:18:38.090Z,14.70
2018-09-24T17:23:23.411Z,14.40
2018-09-24T17:28:08.777Z,14.00
2018-09-24T17:32:54.054Z,13.80
2018-09-24T17:37:39.289Z,13.50
2018-09-24T17:42:24.476Z,13.10
2018-09-24T17:47:09.825Z,12.80
2018-09-24T17:51:55.730Z,12.50
2018-09-24T17:56:41.656Z,12.40
2018-09-24T18:01:26.809Z,12.30
2018-09-24T18:06:11.951Z,12.20
2018-09-24T18:10:57.129Z,12.00
2018-09-24T18:15:42.369Z,11.70
2018-09-24T18:20:27.300Z,11.40
2018-09-24T18:25:12.455Z,11.20
2018-09-24T18:29:57.565Z,11.00
2018-09-24T18:34:42.846Z,10.80
2018-09-24T18:39:28.329Z,10.70
2018-09-24T18:44:13.608Z,10.60
2018-09-24T18:48:58.780Z,10.50
2018-09-24T18:53:44.697Z,10.40
2018-09-24T18:58:30.849Z,10.30
2018-09-24T19:03:16.610Z,10.30
2018-09-24T19:08:01.896Z,10.20
2018-09-24T19:12:47.052Z,10.20
2018-09-24T19:17:32.750Z,10.30
2018-09-24T19:22:18.161Z,10.30
2018-09-24T19:27:03.915Z,10.30
2018-09-24T19:31:49.059Z,10.20
2018-09-24T19:36:34.276Z,10.20
2018-09-24T19:41:19.744Z,10.10
2018-09-24T19:46:05.145Z,10.10
2018-09-24T19:50:50.282Z,10.10
2018-09-24T19:55:36.825Z,10.00
2018-09-24T20:00:23.125Z,9.80
2018-09-24T20:05:08.212Z,9.70
2018-09-24T20:09:53.465Z,9.60
2018-09-24T20:14:38.525Z,9.40
2018-09-24T20:19:24.538Z,9.30
2018-09-24T20:24:09.772Z,9.10
2018-09-24T20:28:54.976Z,9.00
2018-09-24T20:33:40.396Z,8.90
2018-09-24T20:38:26.104Z,8.80
2018-09-24T20:43:11.393Z,8.70
2018-09-24T20:47:56.808Z,8.50
2018-09-24T20:52:42.252Z,8.50
2018-09-24T20:57:28.584Z,8.50
2018-09-24T21:02:14.629Z,8.40
2018-09-24T21:06:59.725Z,8.30
2018-09-24T21:11:45.629Z,8.30
2018-09-24T21:16:31.574Z,8.20
2018-09-24T21:21:17.374Z,8.10
2018-09-24T21:26:02.838Z,8.00
2018-09-24T21:30:48.144Z,7.90
2018-09-24T21:35:33.543Z,7.90
2018-09-24T21:40:19.190Z,7.80
2018-09-24T21:45:04.431Z,7.80
2018-09-24T21:49:49.794Z,7.70
2018-09-24T21:54:34.981Z,7.50
2018-09-24T21:59:20.121Z,7.40
2018-09-24T22:04:08.144Z,7.30
2018-09-24T22:08:53.437Z,7.30
2018-09-24T22:13:38.589Z,7.20
2018-09-24T22:18:24.045Z,7.20
2018-09-24T22:23:09.350Z,7.10
2018-09-24T22:27:54.496Z,7.00
2018-09-24T22:32:39.964Z,6.90
2018-09-24T22:37:25.146Z,6.90
2018-09-24T22:42:10.410Z,6.90
2018-09-24T22:46:55.522Z,6.90
2018-09-24T22:51:40.868Z,6.70
2018-09-24T22:56:26.328Z,6.60
2018-09-24T23:01:11.651Z,6.60
2018-09-24T23:05:57.079Z,6.60
2018-09-24T23:10:43.532Z,6.60
2018-09-24T23:15:28.889Z,6.50
2018-09-24T23:20:14.257Z,6.50
2018-09-24T23:25:06.791Z,6.40
2018-09-24T23:29:52.019Z,6.30
2018-09-24T23:34:37.665Z,6.30
2018-09-24T23:39:23.039Z,6.30
2018-09-24T23:44:08.472Z,6.30
2018-09-24T23:48:54.196Z,6.20
2018-09-24T23:53:39.458Z,6.10
2018-09-24T23:58:25.026Z,6.00
